createdAt,value
2024-03-25T00:00:26.344Z,62.25293
2024-03-25T00:01:25.285Z,61.93359
2024-03-25T00:02:25.338Z,61.82813
2024-03-25T00:03:26.305Z,61.45703
2024-03-25T00:04:25.332Z,61.33008
2024-03-25T00:05:26.284Z,61.51367
2024-03-25T00:06:25.337Z,61.51465
2024-03-25T00:07:25.340Z,61.54395
2024-03-25T00:08:26.315Z,61.26855
2024-03-25T00:09:25.351Z,61.04004
2024-03-25T00:10:26.292Z,61.31641
2024-03-25T00:11:25.344Z,61.01758
2024-03-25T00:12:26.320Z,61.11426
2024-03-25T00:13:25.350Z,60.73047
2024-03-25T00:14:25.350Z,61.13281
2024-03-25T00:15:26.297Z,61.47559
2024-03-25T00:16:25.356Z,61.52441
2024-03-25T00:17:26.329Z,60.97461
2024-03-25T00:18:25.321Z,61.58691
2024-03-25T00:19:25.315Z,61.5459
2024-03-25T00:20:26.321Z,61.54297
2024-03-25T00:21:25.366Z,61.36816
2024-03-25T00:22:26.335Z,61.21875
2024-03-25T00:23:25.369Z,61.37012
2024-03-25T00:24:30.014Z,61.2832
2024-03-25T00:25:26.315Z,61.30176
2024-03-25T00:26:25.380Z,61.13086
2024-03-25T00:27:26.355Z,60.69336
2024-03-25T00:28:25.395Z,60.65527
2024-03-25T00:29:26.315Z,60.72852
2024-03-25T00:30:26.334Z,61.14746
2024-03-25T00:31:25.402Z,60.58105
2024-03-25T00:32:26.397Z,60.29688
2024-03-25T00:33:25.406Z,60.06543
2024-03-25T00:34:26.333Z,59.89941
2024-03-25T00:35:26.328Z,60.16016
2024-03-25T00:36:25.391Z,60.07422
2024-03-25T00:37:26.375Z,60.03809
2024-03-25T00:38:25.403Z,60.4541
2024-03-25T00:39:26.399Z,60.58594
2024-03-25T00:40:26.367Z,61.06055
2024-03-25T00:41:26.351Z,60.60449
2024-03-25T00:42:25.371Z,60.65918
2024-03-25T00:43:25.423Z,60.73535
2024-03-25T00:44:26.372Z,60.87988
2024-03-25T00:45:26.370Z,60.17578
2024-03-25T00:46:26.404Z,60.16602
2024-03-25T00:47:25.417Z,59.40039
2024-03-25T00:48:25.427Z,59.37793
2024-03-25T00:49:26.405Z,59.13184
2024-03-25T00:50:26.386Z,59.70605
2024-03-25T00:51:26.362Z,59.98633
2024-03-25T00:52:25.388Z,60.70703
2024-03-25T00:53:34.066Z,61.15234
2024-03-25T00:54:25.427Z,61.04785
2024-03-25T00:55:26.379Z,60.68066
2024-03-25T00:56:26.387Z,60.18848
2024-03-25T00:57:25.441Z,60.32227
2024-03-25T00:58:26.373Z,60.31055
2024-03-25T00:59:25.408Z,60.47656
2024-03-25T01:00:26.392Z,60.68066
2024-03-25T01:01:26.387Z,60.64941
2024-03-25T01:02:25.453Z,60.64941
2024-03-25T01:03:26.406Z,60.32129
2024-03-25T01:04:25.453Z,60.77734
2024-03-25T01:05:26.401Z,60.75781
2024-03-25T01:06:26.475Z,60.66406
2024-03-25T01:07:25.419Z,60.46582
2024-03-25T01:08:26.454Z,60.33789
2024-03-25T01:09:25.474Z,60.79883
2024-03-25T01:10:29.134Z,60.89746
2024-03-25T01:11:25.463Z,60.94629
2024-03-25T01:12:25.498Z,60.82617
2024-03-25T01:13:26.429Z,60.2793
2024-03-25T01:14:25.442Z,60.91211
2024-03-25T01:15:26.430Z,60.9502
2024-03-25T01:16:25.481Z,60.56641
2024-03-25T01:17:25.557Z,60.26172
2024-03-25T01:18:26.454Z,60.16699
2024-03-25T01:19:25.457Z,59.86719
2024-03-25T01:20:26.455Z,60.0459
2024-03-25T01:21:25.491Z,59.83691
2024-03-25T01:22:30.166Z,59.56836
2024-03-25T01:23:25.497Z,59.73633
2024-03-25T01:24:25.524Z,59.91797
2024-03-25T01:25:26.478Z,60.40234
2024-03-25T01:26:25.492Z,60.37988
2024-03-25T01:27:26.469Z,60.32617
2024-03-25T01:28:25.468Z,60.33496
2024-03-25T01:29:25.513Z,60.16602
2024-03-25T01:30:26.492Z,59.93359
2024-03-25T01:31:25.464Z,60.21973
2024-03-25T01:32:26.496Z,60.33984
2024-03-25T01:33:25.473Z,60.20215
2024-03-25T01:34:25.543Z,59.79492
2024-03-25T01:35:26.486Z,60.08887
2024-03-25T01:36:25.477Z,60.2334
2024-03-25T01:37:26.519Z,60.14941
2024-03-25T01:38:25.485Z,59.98535
2024-03-25T01:39:29.159Z,59.78906
2024-03-25T01:40:26.494Z,60.63574
2024-03-25T01:41:25.554Z,60.67676
2024-03-25T01:42:26.488Z,60.56836
2024-03-25T01:43:25.496Z,60.45898
2024-03-25T01:44:26.497Z,60.30176
2024-03-25T01:45:26.501Z,60.44727
2024-03-25T01:46:25.581Z,60.83008
2024-03-25T01:47:26.513Z,60.54297
2024-03-25T01:48:25.526Z,60.20508
2024-03-25T01:49:26.512Z,60.32617
2024-03-25T01:50:26.499Z,60.5459
2024-03-25T01:51:30.664Z,60.2793
2024-03-25T01:52:25.511Z,59.79492
2024-03-25T01:53:25.564Z,60.2832
2024-03-25T01:54:26.495Z,59.87598
2024-03-25T01:55:26.511Z,60.00684
2024-03-25T01:56:26.515Z,60.4541
2024-03-25T01:57:25.579Z,60.73145
2024-03-25T01:58:25.570Z,60.32813
2024-03-25T01:59:26.515Z,60.14551
2024-03-25T02:00:26.551Z,60.39648
2024-03-25T02:01:26.529Z,59.84473
2024-03-25T02:02:25.580Z,60.02246
2024-03-25T02:03:25.587Z,59.68262
2024-03-25T02:04:26.522Z,59.65137
2024-03-25T02:05:26.533Z,59.91895
2024-03-25T02:06:26.527Z,60.05762
2024-03-25T02:07:25.617Z,60.14453
2024-03-25T02:08:31.910Z,59.99902
2024-03-25T02:09:27.856Z,60.48633
2024-03-25T02:10:26.568Z,61.04492
2024-03-25T02:11:26.554Z,61.0498
2024-03-25T02:12:25.596Z,61.22754
2024-03-25T02:13:26.555Z,61.31543
2024-03-25T02:14:25.606Z,61.50391
2024-03-25T02:15:26.572Z,61.66406
2024-03-25T02:16:26.549Z,60.92188
2024-03-25T02:17:25.625Z,61.20898
2024-03-25T02:18:26.566Z,61.27734
2024-03-25T02:19:25.621Z,61.09766
2024-03-25T02:20:34.256Z,60.87402
2024-03-25T02:21:25.618Z,61.02539
2024-03-25T02:22:25.623Z,61.28418
2024-03-25T02:23:26.596Z,61.0332
2024-03-25T02:24:25.639Z,61.32617
2024-03-25T02:25:26.564Z,61.68945
2024-03-25T02:26:25.629Z,60.19238
2024-03-25T02:27:25.629Z,60.66309
2024-03-25T02:28:26.579Z,60.85449
2024-03-25T02:29:25.637Z,60.98828
2024-03-25T02:30:26.584Z,61.1748
2024-03-25T02:31:25.637Z,60.7959
2024-03-25T02:32:25.655Z,61.12891
2024-03-25T02:33:26.594Z,61.35645
2024-03-25T02:34:25.651Z,61.2627
2024-03-25T02:35:26.592Z,60.9668
2024-03-25T02:36:25.652Z,60.64746
2024-03-25T02:37:26.606Z,60.49512
2024-03-25T02:38:25.655Z,60.97559
2024-03-25T02:39:25.660Z,61.00098
2024-03-25T02:40:26.596Z,61.48828
2024-03-25T02:41:25.666Z,61.2627
2024-03-25T02:42:26.609Z,60.83105
2024-03-25T02:43:25.659Z,60.48828
2024-03-25T02:44:25.663Z,60.59277
2024-03-25T02:45:26.654Z,60.68652
2024-03-25T02:46:25.676Z,60.11816
2024-03-25T02:47:26.637Z,59.86426
2024-03-25T02:48:25.637Z,59.93262
2024-03-25T02:49:30.395Z,60.12891
2024-03-25T02:50:26.699Z,60.3125
2024-03-25T02:51:25.688Z,60.30078
2024-03-25T02:52:26.630Z,60.44824
2024-03-25T02:53:25.693Z,60.11621
2024-03-25T02:54:26.680Z,60.15234
2024-03-25T02:55:26.669Z,59.94434
2024-03-25T02:56:25.669Z,59.79199
2024-03-25T02:57:26.641Z,59.93848
2024-03-25T02:58:25.711Z,60.39453
2024-03-25T02:59:26.642Z,60.31055
2024-03-25T03:00:26.699Z,60.15039
2024-03-25T03:01:25.678Z,60.14746
2024-03-25T03:02:26.662Z,60.18652
2024-03-25T03:03:25.713Z,60.2002
2024-03-25T03:04:26.668Z,59.99023
2024-03-25T03:05:26.691Z,60.1582
2024-03-25T03:06:29.332Z,60.10645
2024-03-25T03:07:25.715Z,60.18359
2024-03-25T03:08:25.728Z,60.16113
2024-03-25T03:09:26.654Z,60.3916
2024-03-25T03:10:26.690Z,60.7627
2024-03-25T03:11:26.653Z,60.55273
2024-03-25T03:12:25.686Z,60.34668
2024-03-25T03:13:25.728Z,60.37695
2024-03-25T03:14:26.669Z,60.17773
2024-03-25T03:15:26.673Z,60.43457
2024-03-25T03:16:26.686Z,61.21094
2024-03-25T03:17:25.745Z,61.19922
2024-03-25T03:18:30.390Z,60.93945
2024-03-25T03:19:25.738Z,61.48633
2024-03-25T03:20:26.708Z,61.85449
2024-03-25T03:21:26.687Z,61.68262
2024-03-25T03:22:25.748Z,61.07129
2024-03-25T03:23:26.725Z,61.35547
2024-03-25T03:24:25.751Z,61.24805
2024-03-25T03:25:26.713Z,61.47852
2024-03-25T03:26:26.706Z,61.60938
2024-03-25T03:27:25.759Z,61.78516
2024-03-25T03:28:26.740Z,61.84863
2024-03-25T03:29:25.722Z,61.48633
2024-03-25T03:30:26.708Z,61.81055
2024-03-25T03:31:26.708Z,61.4248
2024-03-25T03:32:25.722Z,61.76465
2024-03-25T03:33:26.766Z,61.74707
2024-03-25T03:34:25.727Z,61.61426
2024-03-25T03:35:26.738Z,61.59668
2024-03-25T03:36:25.732Z,61.40723
2024-03-25T03:37:25.785Z,61.21777
2024-03-25T03:38:26.759Z,61.0625
2024-03-25T03:39:25.786Z,61.03613
2024-03-25T03:40:26.740Z,61.50488
2024-03-25T03:41:25.786Z,61.16309
2024-03-25T03:42:25.790Z,61.18555
2024-03-25T03:43:26.773Z,61.49707
2024-03-25T03:44:25.755Z,61.99023
2024-03-25T03:45:26.755Z,61.92285
2024-03-25T03:46:25.803Z,61.72852
2024-03-25T03:47:30.442Z,61.29883
2024-03-25T03:48:25.795Z,61.13672
2024-03-25T03:49:25.802Z,60.91992
2024-03-25T03:50:26.746Z,61.28125
2024-03-25T03:51:25.802Z,61.38965
2024-03-25T03:52:26.795Z,61.35059
2024-03-25T03:53:25.815Z,61.62988
2024-03-25T03:54:25.831Z,61.71582
2024-03-25T03:55:26.764Z,61.67188
2024-03-25T03:56:25.828Z,61.64258
2024-03-25T03:57:26.785Z,61.77148
2024-03-25T03:58:25.824Z,62.27832
2024-03-25T03:59:25.821Z,62.87305
2024-03-25T04:00:26.811Z,63.12207
2024-03-25T04:01:25.780Z,63.03027
2024-03-25T04:02:26.828Z,63.00098
2024-03-25T04:03:25.832Z,63.3125
2024-03-25T04:04:26.789Z,63.22949
2024-03-25T04:05:26.783Z,63.29395
2024-03-25T04:06:25.795Z,62.77832
2024-03-25T04:07:26.828Z,62.7041
2024-03-25T04:08:25.823Z,62.2207
2024-03-25T04:09:26.793Z,61.98535
2024-03-25T04:10:26.812Z,62.71973
2024-03-25T04:11:25.810Z,62.91699
2024-03-25T04:12:26.832Z,62.94434
2024-03-25T04:13:25.849Z,63.15332
2024-03-25T04:14:26.806Z,62.88086
2024-03-25T04:15:26.807Z,62.94727
2024-03-25T04:16:30.498Z,63.77637
2024-03-25T04:17:25.864Z,63.69824
2024-03-25T04:18:25.823Z,63.12402
2024-03-25T04:19:26.838Z,62.77441
2024-03-25T04:20:26.796Z,62.60059
2024-03-25T04:21:26.851Z,61.81152
2024-03-25T04:22:25.833Z,62.08008
2024-03-25T04:23:25.877Z,62.3584
2024-03-25T04:24:26.853Z,61.88281
2024-03-25T04:25:26.849Z,61.60449
2024-03-25T04:26:26.840Z,61.08496
2024-03-25T04:27:25.887Z,61.24316
2024-03-25T04:28:25.886Z,61.01563
2024-03-25T04:29:26.867Z,60.98145
2024-03-25T04:30:26.840Z,61.31348
2024-03-25T04:31:26.845Z,61.32324
2024-03-25T04:32:25.923Z,61.75
2024-03-25T04:33:29.482Z,62.10742
2024-03-25T04:34:25.897Z,62.43457
2024-03-25T04:35:26.844Z,62.73828
2024-03-25T04:36:28.434Z,62.89453
2024-03-25T04:37:25.858Z,62.7627
2024-03-25T04:38:26.855Z,62.61621
2024-03-25T04:39:25.908Z,62.51367
2024-03-25T04:40:26.859Z,63.04395
2024-03-25T04:41:26.869Z,63.68164
2024-03-25T04:42:25.920Z,63.30176
2024-03-25T04:43:26.864Z,63.66699
2024-03-25T04:44:25.883Z,63.87598
2024-03-25T04:45:30.629Z,64.25
2024-03-25T04:46:25.882Z,64.2207
2024-03-25T04:47:25.957Z,64.43945
2024-03-25T04:48:26.872Z,64.17871
2024-03-25T04:49:25.929Z,64.0918
2024-03-25T04:50:26.875Z,63.94434
2024-03-25T04:51:25.929Z,63.61621
2024-03-25T04:52:25.935Z,63.64063
2024-03-25T04:53:26.878Z,63.2666
2024-03-25T04:54:25.951Z,63.75391
2024-03-25T04:55:26.889Z,63.74902
2024-03-25T04:56:25.949Z,63.63477
2024-03-25T04:57:25.958Z,63.12598
2024-03-25T04:58:28.724Z,62.87207
2024-03-25T04:59:25.910Z,62.87402
2024-03-25T05:00:26.895Z,62.53906
2024-03-25T05:01:25.992Z,61.96582
2024-03-25T05:02:26.941Z,62.59473
2024-03-25T05:03:25.919Z,62.19238
2024-03-25T05:04:25.913Z,62.21484
2024-03-25T05:05:26.893Z,62.18164
2024-03-25T05:06:25.969Z,62.50586
2024-03-25T05:07:26.948Z,62.93848
2024-03-25T05:08:25.977Z,62.68848
2024-03-25T05:09:25.929Z,63.0498
2024-03-25T05:10:26.936Z,63.05859
2024-03-25T05:11:25.936Z,63.23438
2024-03-25T05:12:26.948Z,63.44629
2024-03-25T05:13:25.984Z,63.03809
2024-03-25T05:14:30.690Z,63.27539
2024-03-25T05:15:26.954Z,63.21484
2024-03-25T05:16:25.984Z,63.12793
2024-03-25T05:17:26.956Z,62.68555
2024-03-25T05:18:25.945Z,62.84961
2024-03-25T05:19:26.945Z,62.91699
2024-03-25T05:20:26.937Z,62.86426
2024-03-25T05:21:26.001Z,63.05566
2024-03-25T05:22:26.953Z,63.11133
2024-03-25T05:23:26.017Z,63.22168
2024-03-25T05:24:26.968Z,63.72754
2024-03-25T05:25:26.955Z,63.50293
2024-03-25T05:26:25.962Z,63.5332
2024-03-25T05:27:26.953Z,63.60742
2024-03-25T05:28:26.014Z,63.76758
2024-03-25T05:29:26.964Z,63.71777
2024-03-25T05:30:26.989Z,63.82813
2024-03-25T05:31:26.955Z,63.52148
2024-03-25T05:32:26.031Z,63.43457
2024-03-25T05:33:25.979Z,63.37988
2024-03-25T05:34:26.978Z,63.1709
2024-03-25T05:35:26.997Z,63.07324
2024-03-25T05:36:26.964Z,63.54785
2024-03-25T05:37:26.027Z,63.17969
2024-03-25T05:38:26.027Z,63.72363
2024-03-25T05:39:27.009Z,63.69141
2024-03-25T05:40:26.981Z,63.46191
2024-03-25T05:41:26.995Z,63.6748
2024-03-25T05:42:25.998Z,63.75488
2024-03-25T05:43:30.793Z,63.95313
2024-03-25T05:44:26.041Z,63.94531
2024-03-25T05:45:26.991Z,63.58008
2024-03-25T05:46:26.977Z,63.76953
2024-03-25T05:47:26.054Z,63.81348
2024-03-25T05:48:26.988Z,63.49902
2024-03-25T05:49:26.048Z,63.31543
2024-03-25T05:50:26.988Z,63.06738
2024-03-25T05:51:26.998Z,63.68652
2024-03-25T05:52:26.023Z,63.50293
2024-03-25T05:53:27.012Z,63.94629
2024-03-25T05:54:26.061Z,64.21387
2024-03-25T05:55:27.010Z,63.95313
2024-03-25T05:56:27.017Z,63.93164
2024-03-25T05:57:26.074Z,64.19434
2024-03-25T05:58:27.014Z,64.41602
2024-03-25T05:59:26.075Z,64.34863
2024-03-25T06:00:27.046Z,64.76855
2024-03-25T06:01:26.037Z,64.72852
2024-03-25T06:02:26.084Z,64.79102
2024-03-25T06:03:27.064Z,64.65039
2024-03-25T06:04:26.089Z,64.42285
2024-03-25T06:05:27.037Z,64.30664
2024-03-25T06:06:26.095Z,64.71094
2024-03-25T06:07:26.096Z,64.33887
2024-03-25T06:08:27.081Z,64.77148
2024-03-25T06:09:26.106Z,64.6416
2024-03-25T06:10:27.047Z,64.1709
2024-03-25T06:11:26.102Z,64.39063
2024-03-25T06:12:30.794Z,64.26855
2024-03-25T06:13:26.100Z,64.14063
2024-03-25T06:14:26.101Z,64.3916
2024-03-25T06:15:27.060Z,63.91602
2024-03-25T06:16:26.146Z,63.77148
2024-03-25T06:17:27.066Z,63.97559
2024-03-25T06:18:26.073Z,62.87305
2024-03-25T06:19:26.074Z,62.79199
2024-03-25T06:20:27.074Z,63.06348
2024-03-25T06:21:26.122Z,63.39941
2024-03-25T06:22:27.089Z,62.90234
2024-03-25T06:23:26.124Z,62.6123
2024-03-25T06:24:26.078Z,62.33984
2024-03-25T06:25:27.072Z,62.63281
2024-03-25T06:26:26.136Z,62.97852
2024-03-25T06:27:27.068Z,63.03809
2024-03-25T06:28:26.144Z,62.19336
2024-03-25T06:29:27.095Z,62.23242
2024-03-25T06:30:27.082Z,62.12305
2024-03-25T06:31:26.153Z,61.91992
2024-03-25T06:32:27.109Z,61.85938
2024-03-25T06:33:26.111Z,61.97168
2024-03-25T06:34:27.095Z,61.61523
2024-03-25T06:35:27.109Z,62.51563
2024-03-25T06:36:26.156Z,62.38672
2024-03-25T06:37:27.126Z,62.54492
2024-03-25T06:38:26.149Z,62.35449
2024-03-25T06:39:27.110Z,62.73242
2024-03-25T06:40:27.099Z,63.3291
2024-03-25T06:41:30.842Z,63.08594
2024-03-25T06:42:26.177Z,63.22461
2024-03-25T06:43:26.132Z,63.42871
2024-03-25T06:44:27.149Z,63.82324
2024-03-25T06:45:27.111Z,63.7002
2024-03-25T06:46:27.109Z,63.39648
2024-03-25T06:47:26.153Z,63.22363
2024-03-25T06:48:26.172Z,63.34766
2024-03-25T06:49:27.153Z,63.02344
2024-03-25T06:50:27.135Z,63.06836
2024-03-25T06:51:27.133Z,62.66113
2024-03-25T06:52:26.190Z,62.56445
2024-03-25T06:53:26.206Z,62.38184
2024-03-25T06:54:27.191Z,62.05469
2024-03-25T06:55:27.158Z,62.37988
2024-03-25T06:56:27.152Z,62.64355
2024-03-25T06:57:26.225Z,62.87695
2024-03-25T06:58:27.144Z,62.43359
2024-03-25T06:59:26.221Z,62.66504
2024-03-25T07:00:27.211Z,62.95508
2024-03-25T07:01:27.142Z,62.95313
2024-03-25T07:02:26.228Z,62.10938
2024-03-25T07:03:27.166Z,61.85352
2024-03-25T07:04:26.170Z,62.14941
2024-03-25T07:05:27.163Z,62.69824
2024-03-25T07:06:27.169Z,62.99121
2024-03-25T07:07:26.238Z,62.84473
2024-03-25T07:08:27.169Z,62.6543
2024-03-25T07:09:26.185Z,62.90723
2024-03-25T07:10:30.905Z,62.92773
2024-03-25T07:11:26.182Z,62.76855
2024-03-25T07:12:26.237Z,62.71484
2024-03-25T07:13:27.167Z,63.13281
2024-03-25T07:14:26.239Z,63.4502
2024-03-25T07:15:27.206Z,63.60645
2024-03-25T07:16:26.216Z,63.09863
2024-03-25T07:17:26.256Z,62.63965
2024-03-25T07:18:27.220Z,62.48633
2024-03-25T07:19:26.195Z,61.93555
2024-03-25T07:20:27.216Z,62.7832
2024-03-25T07:21:28.198Z,62.69434
2024-03-25T07:22:26.209Z,62.37793
2024-03-25T07:23:27.198Z,62.55859
2024-03-25T07:24:26.262Z,62.30176
2024-03-25T07:25:27.212Z,62.63086
2024-03-25T07:26:26.261Z,62.23633
2024-03-25T07:27:27.205Z,61.875
2024-03-25T07:28:26.800Z,61.30859
2024-03-25T07:29:26.219Z,61.47754
2024-03-25T07:30:27.217Z,61.81738
2024-03-25T07:31:26.229Z,62.17871
2024-03-25T07:32:27.261Z,62.44922
2024-03-25T07:33:26.243Z,62.63672
2024-03-25T07:34:26.300Z,62.57324
2024-03-25T07:35:27.307Z,62.64941
2024-03-25T07:36:26.280Z,62.29395
2024-03-25T07:37:27.229Z,62.30664
2024-03-25T07:38:26.439Z,62.20703
2024-03-25T07:39:30.986Z,62.46191
2024-03-25T07:40:27.275Z,62.67578
2024-03-25T07:41:26.254Z,62.48047
2024-03-25T07:42:27.250Z,61.69727
2024-03-25T07:43:26.298Z,61.50684
2024-03-25T07:44:27.255Z,61.68359
2024-03-25T07:45:27.307Z,62.00977
2024-03-25T07:46:26.302Z,61.92871
2024-03-25T07:47:27.260Z,61.70215
2024-03-25T07:48:26.285Z,61.40527
2024-03-25T07:49:27.261Z,61.23828
2024-03-25T07:50:27.280Z,61.29883
2024-03-25T07:51:26.404Z,60.87598
2024-03-25T07:52:27.266Z,61.52441
2024-03-25T07:53:26.272Z,61.61719
2024-03-25T07:54:27.300Z,61.10352
2024-03-25T07:55:27.312Z,61.05859
2024-03-25T07:56:27.719Z,60.83301
2024-03-25T07:57:26.299Z,60.59082
2024-03-25T07:58:26.340Z,60.27441
2024-03-25T07:59:27.320Z,60.40332
2024-03-25T08:00:27.299Z,60.76172
2024-03-25T08:01:27.314Z,60.50293
2024-03-25T08:02:26.296Z,60.3916
2024-03-25T08:03:26.382Z,60.42578
2024-03-25T08:04:27.350Z,60.6416
2024-03-25T08:05:27.352Z,60.40039
2024-03-25T08:06:27.289Z,60.31348
2024-03-25T08:07:26.343Z,59.74512
2024-03-25T08:08:31.084Z,59.53711
2024-03-25T08:09:26.328Z,59.88184
2024-03-25T08:10:27.323Z,60.31055
2024-03-25T08:11:27.380Z,60.58789
2024-03-25T08:12:26.316Z,59.94434
2024-03-25T08:13:35.954Z,60.25879
2024-03-25T08:14:26.312Z,60.36719
2024-03-25T08:15:27.302Z,60.73145
2024-03-25T08:16:27.311Z,60.82422
2024-03-25T08:17:26.359Z,60.3291
2024-03-25T08:18:27.353Z,60.36426
2024-03-25T08:19:26.326Z,60.13477
2024-03-25T08:20:27.342Z,59.30957
2024-03-25T08:21:27.355Z,60.12598
2024-03-25T08:22:26.332Z,58.31934
2024-03-25T08:23:27.314Z,58.96191
2024-03-25T08:24:26.382Z,58.16992
2024-03-25T08:25:27.334Z,59.07324
2024-03-25T08:26:26.342Z,58.75098
2024-03-25T08:27:26.435Z,58.4043
2024-03-25T08:28:27.331Z,57.94727
2024-03-25T08:29:26.390Z,57.36328
2024-03-25T08:30:27.337Z,58.35059
2024-03-25T08:31:26.468Z,58.67676
2024-03-25T08:32:26.363Z,58.46484
2024-03-25T08:33:27.359Z,57.94629
2024-03-25T08:34:26.404Z,57.85547
2024-03-25T08:35:27.346Z,58.20801
2024-03-25T08:36:26.413Z,58.11816
2024-03-25T08:37:31.083Z,57.94043
2024-03-25T08:38:26.417Z,57.44824
2024-03-25T08:39:26.368Z,57.30078
2024-03-25T08:40:27.361Z,56.8457
2024-03-25T08:41:26.423Z,56.90332
2024-03-25T08:42:27.363Z,57.01172
2024-03-25T08:43:26.372Z,58.5
2024-03-25T08:44:26.428Z,58.31445
2024-03-25T08:45:27.408Z,57.40723
2024-03-25T08:46:26.425Z,56.96777
2024-03-25T08:47:27.392Z,56.16992
2024-03-25T08:48:26.433Z,56.60352
2024-03-25T08:49:26.408Z,55.7959
2024-03-25T08:50:27.414Z,56.08594
2024-03-25T08:51:26.396Z,55.76074
2024-03-25T08:52:27.399Z,56.58203
2024-03-25T08:53:26.437Z,56.01758
2024-03-25T08:54:30.090Z,56.69336
2024-03-25T08:55:27.451Z,56.89844
2024-03-25T08:56:26.414Z,54.9248
2024-03-25T08:57:27.551Z,54.64746
2024-03-25T08:58:26.481Z,54.88867
2024-03-25T08:59:27.412Z,55.41602
2024-03-25T09:00:27.407Z,56.01758
2024-03-25T09:01:26.442Z,55.47559
2024-03-25T09:02:27.446Z,56.17578
2024-03-25T09:03:26.462Z,54.39551
2024-03-25T09:04:28.382Z,54.35352
2024-03-25T09:05:27.436Z,53.55762
2024-03-25T09:06:35.139Z,52.63672
2024-03-25T09:07:26.464Z,52.93262
2024-03-25T09:08:26.465Z,51.84668
2024-03-25T09:09:27.471Z,51.59277
2024-03-25T09:10:27.455Z,50.33105
2024-03-25T09:11:27.454Z,51.31738
2024-03-25T09:12:26.568Z,51.28711
2024-03-25T09:13:26.442Z,51.4541
2024-03-25T09:14:27.467Z,51.44043
2024-03-25T09:15:27.440Z,50.9082
2024-03-25T09:16:27.463Z,51.31738
2024-03-25T09:17:26.518Z,51.36621
2024-03-25T09:18:26.450Z,50.30566
2024-03-25T09:19:27.491Z,49.68164
2024-03-25T09:20:27.444Z,49.95605
2024-03-25T09:21:27.457Z,50.81445
2024-03-25T09:22:26.522Z,51.02734
2024-03-25T09:23:30.160Z,50.87988
2024-03-25T09:24:26.527Z,49.91992
2024-03-25T09:25:27.455Z,50.20313
2024-03-25T09:26:27.487Z,50.48047
2024-03-25T09:27:26.656Z,50.82617
2024-03-25T09:28:27.460Z,49.84375
2024-03-25T09:29:26.494Z,49.08398
2024-03-25T09:30:27.483Z,47.09082
2024-03-25T09:31:27.474Z,47.42188
2024-03-25T09:32:26.489Z,49.25488
2024-03-25T09:33:27.494Z,49.13477
2024-03-25T09:34:26.529Z,50.90918
2024-03-25T09:35:31.226Z,50.8125
2024-03-25T09:36:26.554Z,48.83496
2024-03-25T09:37:26.527Z,50.13965
2024-03-25T09:38:27.486Z,50.56543
2024-03-25T09:39:26.543Z,49.58789
2024-03-25T09:40:27.496Z,48.74414
2024-03-25T09:41:26.554Z,49.02344
2024-03-25T09:42:26.706Z,48.3877
2024-03-25T09:43:27.557Z,49.13965
2024-03-25T09:44:26.513Z,49.6875
2024-03-25T09:45:27.527Z,51.07617
2024-03-25T09:46:26.531Z,50.03223
2024-03-25T09:47:26.530Z,50.29004
2024-03-25T09:48:27.530Z,49.91406
2024-03-25T09:49:26.539Z,49.69043
2024-03-25T09:50:27.543Z,49.68848
2024-03-25T09:51:26.565Z,50.0459
2024-03-25T09:52:27.511Z,51.25391
2024-03-25T09:53:26.591Z,51.89355
2024-03-25T09:54:26.629Z,50.81836
2024-03-25T09:55:27.516Z,49.83691
2024-03-25T09:56:26.590Z,49.62695
2024-03-25T09:57:27.534Z,49.95117
2024-03-25T09:58:26.590Z,50.16309
2024-03-25T09:59:26.585Z,48.65234
2024-03-25T10:00:27.558Z,48.15723
2024-03-25T10:01:26.644Z,48.40527
2024-03-25T10:02:27.564Z,48.22559
2024-03-25T10:03:26.579Z,47.61426
2024-03-25T10:04:31.287Z,47.02539
2024-03-25T10:05:27.588Z,47.79883
2024-03-25T10:06:26.633Z,46.04297
2024-03-25T10:07:27.603Z,47.13379
2024-03-25T10:08:26.551Z,47.83203
2024-03-25T10:09:27.543Z,46.81934
2024-03-25T10:10:27.653Z,47.5625
2024-03-25T10:11:26.602Z,48.35059
2024-03-25T10:12:27.605Z,45.89551
2024-03-25T10:13:26.624Z,44.50977
2024-03-25T10:14:27.588Z,45.60742
2024-03-25T10:15:27.612Z,46.89941
2024-03-25T10:16:26.713Z,46.31738
2024-03-25T10:17:27.614Z,46.71484
2024-03-25T10:18:26.595Z,45.94824
2024-03-25T10:19:27.621Z,46.20313
2024-03-25T10:20:27.567Z,46.75195
2024-03-25T10:21:30.270Z,46.56445
2024-03-25T10:22:26.632Z,45.79004
2024-03-25T10:23:26.588Z,47.30762
2024-03-25T10:24:27.647Z,46.92188
2024-03-25T10:25:27.589Z,47.37891
2024-03-25T10:26:27.667Z,45.65234
2024-03-25T10:27:26.598Z,46.27148
2024-03-25T10:28:26.703Z,45.46582
2024-03-25T10:29:27.620Z,46.59473
2024-03-25T10:30:27.679Z,46.88965
2024-03-25T10:31:27.629Z,46.76074
2024-03-25T10:32:26.664Z,46.29883
2024-03-25T10:33:31.344Z,44.98535
2024-03-25T10:34:26.645Z,46.7334
2024-03-25T10:35:28.756Z,46.88379
2024-03-25T10:36:27.624Z,44.68359
2024-03-25T10:37:26.796Z,44.25391
2024-03-25T10:38:27.635Z,45.2334
2024-03-25T10:39:26.649Z,46.25
2024-03-25T10:40:27.674Z,47.33789
2024-03-25T10:41:27.625Z,47.44531
2024-03-25T10:42:26.630Z,45.63965
2024-03-25T10:43:27.690Z,45.77637
2024-03-25T10:44:26.633Z,46.23828
2024-03-25T10:45:27.686Z,46.13672
2024-03-25T10:46:27.638Z,45.1084
2024-03-25T10:47:26.715Z,44.40527
2024-03-25T10:48:27.637Z,44.58691
2024-03-25T10:49:26.700Z,43.68164
2024-03-25T10:50:29.703Z,45.60254
2024-03-25T10:51:26.745Z,44.09668
2024-03-25T10:52:26.650Z,44.77051
2024-03-25T10:53:27.670Z,43.55859
2024-03-25T10:54:26.908Z,44.16504
2024-03-25T10:55:27.669Z,43.54102
2024-03-25T10:56:26.693Z,43.37305
2024-03-25T10:57:26.666Z,43.73145
2024-03-25T10:58:27.675Z,43.45898
2024-03-25T10:59:26.857Z,43.53027
2024-03-25T11:00:27.704Z,44.64844
2024-03-25T11:01:26.684Z,42.86523
2024-03-25T11:02:31.912Z,43.87109
2024-03-25T11:03:26.673Z,45.16211
2024-03-25T11:04:26.743Z,45.08496
2024-03-25T11:05:27.931Z,45.86816
2024-03-25T11:06:26.692Z,45.59863
2024-03-25T11:07:31.290Z,45.26855
2024-03-25T11:08:26.753Z,45.20215
2024-03-25T11:09:26.697Z,44.86426
2024-03-25T11:10:27.700Z,45.08691
2024-03-25T11:11:26.717Z,42.62109
2024-03-25T11:12:27.694Z,43.0752
2024-03-25T11:13:26.747Z,44.45605
2024-03-25T11:14:26.747Z,43.52246
2024-03-25T11:15:27.697Z,44.51758
2024-03-25T11:16:26.776Z,44.87793
2024-03-25T11:17:27.754Z,43.33887
2024-03-25T11:18:26.708Z,44.97559
2024-03-25T11:19:27.728Z,44.66504
2024-03-25T11:20:27.773Z,43.79102
2024-03-25T11:21:26.732Z,42.07715
2024-03-25T11:22:27.731Z,43.29883
2024-03-25T11:23:26.747Z,43.49609
2024-03-25T11:24:27.721Z,43.11914
2024-03-25T11:25:27.744Z,43.08789
2024-03-25T11:26:26.769Z,43.01563
2024-03-25T11:27:27.725Z,42.92285
2024-03-25T11:28:26.778Z,43.45898
2024-03-25T11:29:27.730Z,42.3418
2024-03-25T11:30:27.727Z,42.68652
2024-03-25T11:31:34.132Z,43.59082
2024-03-25T11:32:26.812Z,43.39746
2024-03-25T11:33:26.744Z,43.64063
2024-03-25T11:34:27.756Z,42.93066
2024-03-25T11:35:27.740Z,43.87305
2024-03-25T11:36:27.773Z,43.65332
2024-03-25T11:37:26.799Z,43.32031
2024-03-25T11:38:26.799Z,43.49316
2024-03-25T11:39:27.760Z,42.95703
2024-03-25T11:40:27.767Z,43.3291
2024-03-25T11:41:27.793Z,42.35938
2024-03-25T11:42:26.829Z,41.65234
2024-03-25T11:43:26.802Z,40.81934
2024-03-25T11:44:27.768Z,41.35938
2024-03-25T11:45:27.797Z,41.57422
2024-03-25T11:46:27.815Z,41.20605